sensor_id;sensor_type;location;lat;lon;timestamp;pressure;altitude;pressure_sealevel;temperature;humidity
62849;BME280;48941;49.516;8.286;2022-09-09T00:01:04;99948.69;;;16.93;82.16
62849;BME280;48941;49.516;8.286;2022-09-09T00:03:41;99943.53;;;16.91;82.20
62849;BME280;48941;49.516;8.286;2022-09-09T00:06:21;99943.97;;;16.95;82.02
62849;BME280;48941;49.516;8.286;2022-09-09T00:09:00;99945.31;;;16.99;82.21
62849;BME280;48941;49.516;8.286;2022-09-09T00:11:36;99942.44;;;17.01;82.22
62849;BME280;48941;49.516;8.286;2022-09-09T00:14:13;99943.28;;;17.01;81.72
62849;BME280;48941;49.516;8.286;2022-09-09T00:16:49;99946.84;;;17.02;82.05
62849;BME280;48941;49.516;8.286;2022-09-09T00:19:23;99938.09;;;17.00;82.06
62849;BME280;48941;49.516;8.286;2022-09-09T00:22:01;99929.84;;;17.01;82.51
62849;BME280;48941;49.516;8.286;2022-09-09T00:24:39;99940.25;;;17.04;82.25
62849;BME280;48941;49.516;8.286;2022-09-09T00:27:16;99934.53;;;17.07;82.04
62849;BME280;48941;49.516;8.286;2022-09-09T00:29:52;99929.31;;;17.06;82.03
62849;BME280;48941;49.516;8.286;2022-09-09T00:32:21;99929.81;;;17.09;82.07
62849;BME280;48941;49.516;8.286;2022-09-09T00:34:52;99930.47;;;17.11;81.88
62849;BME280;48941;49.516;8.286;2022-09-09T00:37:24;99926.91;;;17.11;81.47
62849;BME280;48941;49.516;8.286;2022-09-09T00:39:55;99919.72;;;17.11;81.37
62849;BME280;48941;49.516;8.286;2022-09-09T00:42:33;99922.56;;;17.10;81.06
62849;BME280;48941;49.516;8.286;2022-09-09T00:45:19;99918.69;;;17.12;81.11
62849;BME280;48941;49.516;8.286;2022-09-09T00:47:54;99931.66;;;17.09;80.96
62849;BME280;48941;49.516;8.286;2022-09-09T00:50:35;99927.94;;;17.10;80.89
62849;BME280;48941;49.516;8.286;2022-09-09T00:53:19;99925.91;;;17.12;80.57
62849;BME280;48941;49.516;8.286;2022-09-09T00:55:55;99926.25;;;17.09;80.84
62849;BME280;48941;49.516;8.286;2022-09-09T00:58:27;99935.19;;;17.09;80.74
62849;BME280;48941;49.516;8.286;2022-09-09T01:00:58;99933.34;;;17.10;80.86
62849;BME280;48941;49.516;8.286;2022-09-09T01:03:35;99924.44;;;17.09;80.94
62849;BME280;48941;49.516;8.286;2022-09-09T01:06:13;99928.78;;;17.10;80.91
62849;BME280;48941;49.516;8.286;2022-09-09T01:09:05;99932.31;;;17.11;80.91
62849;BME280;48941;49.516;8.286;2022-09-09T01:11:43;99924.59;;;17.08;80.42
62849;BME280;48941;49.516;8.286;2022-09-09T01:14:22;99923.22;;;17.12;80.54
62849;BME280;48941;49.516;8.286;2022-09-09T01:16:54;99927.59;;;17.13;79.93
62849;BME280;48941;49.516;8.286;2022-09-09T01:19:32;99931.97;;;17.14;79.88
62849;BME280;48941;49.516;8.286;2022-09-09T01:22:13;99930.66;;;17.10;80.26
62849;BME280;48941;49.516;8.286;2022-09-09T01:28:08;99926.91;;;17.11;79.39
62849;BME280;48941;49.516;8.286;2022-09-09T01:30:39;99925.25;;;17.10;79.53
62849;BME280;48941;49.516;8.286;2022-09-09T01:33:12;99913.84;;;17.08;79.18
62849;BME280;48941;49.516;8.286;2022-09-09T01:35:45;99917.34;;;17.08;79.14
62849;BME280;48941;49.516;8.286;2022-09-09T01:38:15;99919.22;;;17.08;78.74
62849;BME280;48941;49.516;8.286;2022-09-09T01:40:43;99915.69;;;17.07;78.97
62849;BME280;48941;49.516;8.286;2022-09-09T01:43:13;99919.88;;;17.10;78.36
62849;BME280;48941;49.516;8.286;2022-09-09T01:45:42;99924.88;;;17.13;78.55
62849;BME280;48941;49.516;8.286;2022-09-09T01:48:10;99919.16;;;17.16;78.20
62849;BME280;48941;49.516;8.286;2022-09-09T01:50:38;99913.63;;;17.18;78.20
62849;BME280;48941;49.516;8.286;2022-09-09T01:53:06;99918.13;;;17.17;78.74
62849;BME280;48941;49.516;8.286;2022-09-09T01:55:38;99924.72;;;17.15;78.56
62849;BME280;48941;49.516;8.286;2022-09-09T01:58:17;99917.69;;;17.14;78.39
62849;BME280;48941;49.516;8.286;2022-09-09T02:00:56;99915.81;;;17.14;78.63
62849;BME280;48941;49.516;8.286;2022-09-09T02:03:28;99919.16;;;17.16;78.79
62849;BME280;48941;49.516;8.286;2022-09-09T02:06:02;99927.59;;;17.13;79.21
62849;BME280;48941;49.516;8.286;2022-09-09T02:08:36;99927.78;;;17.11;79.05
62849;BME280;48941;49.516;8.286;2022-09-09T02:11:11;99926.09;;;17.10;79.26
62849;BME280;48941;49.516;8.286;2022-09-09T02:13:44;99933.34;;;17.10;79.34
62849;BME280;48941;49.516;8.286;2022-09-09T02:16:16;99934.66;;;17.14;79.44
62849;BME280;48941;49.516;8.286;2022-09-09T02:18:50;99938.34;;;17.13;79.34
62849;BME280;48941;49.516;8.286;2022-09-09T02:21:19;99928.44;;;17.14;79.43
62849;BME280;48941;49.516;8.286;2022-09-09T02:23:47;99933.28;;;17.18;79.12
62849;BME280;48941;49.516;8.286;2022-09-09T02:26:19;99931.25;;;17.20;78.82
62849;BME280;48941;49.516;8.286;2022-09-09T02:28:52;99929.22;;;17.22;78.55
62849;BME280;48941;49.516;8.286;2022-09-09T02:31:24;99928.56;;;17.20;78.47
62849;BME280;48941;49.516;8.286;2022-09-09T02:33:55;99934.66;;;17.14;79.07
62849;BME280;48941;49.516;8.286;2022-09-09T02:36:25;99930.47;;;17.11;79.01
62849;BME280;48941;49.516;8.286;2022-09-09T02:38:56;99918.19;;;17.09;78.86
62849;BME280;48941;49.516;8.286;2022-09-09T02:41:26;99929.81;;;17.09;79.11
62849;BME280;48941;49.516;8.286;2022-09-09T02:43:56;99931.66;;;17.09;79.20
62849;BME280;48941;49.516;8.286;2022-09-09T02:46:35;99927.13;;;17.09;79.21
62849;BME280;48941;49.516;8.286;2022-09-09T02:49:09;99921.91;;;17.08;78.96
62849;BME280;48941;49.516;8.286;2022-09-09T02:51:40;99912.53;;;17.04;79.22
62849;BME280;48941;49.516;8.286;2022-09-09T02:54:20;99896.88;;;16.99;79.47
62849;BME280;48941;49.516;8.286;2022-09-09T02:56:52;99902.63;;;16.96;79.36
62849;BME280;48941;49.516;8.286;2022-09-09T02:59:22;99908.69;;;16.98;79.14
62849;BME280;48941;49.516;8.286;2022-09-09T03:01:52;99910.72;;;16.96;79.52
62849;BME280;48941;49.516;8.286;2022-09-09T03:04:20;99913.72;;;16.93;79.43
62849;BME280;48941;49.516;8.286;2022-09-09T03:06:48;99914.94;;;16.90;80.12
62849;BME280;48941;49.516;8.286;2022-09-09T03:09:16;99918.31;;;16.84;80.31
62849;BME280;48941;49.516;8.286;2022-09-09T03:11:44;99924.03;;;16.81;80.62
62849;BME280;48941;49.516;8.286;2022-09-09T03:14:12;99921.69;;;16.78;81.23
62849;BME280;48941;49.516;8.286;2022-09-09T03:16:41;99924.53;;;16.77;81.02
62849;BME280;48941;49.516;8.286;2022-09-09T03:19:09;99920.00;;;16.77;80.88
62849;BME280;48941;49.516;8.286;2022-09-09T03:21:37;99913.78;;;16.77;81.08
62849;BME280;48941;49.516;8.286;2022-09-09T03:24:05;99916.47;;;16.77;80.79
62849;BME280;48941;49.516;8.286;2022-09-09T03:26:33;99920.00;;;16.77;81.24
62849;BME280;48941;49.516;8.286;2022-09-09T03:29:00;99910.09;;;16.78;81.02
62849;BME280;48941;49.516;8.286;2022-09-09T03:31:28;99921.34;;;16.81;80.81
62849;BME280;48941;49.516;8.286;2022-09-09T03:33:58;99924.03;;;16.81;80.88
62849;BME280;48941;49.516;8.286;2022-09-09T03:36:26;99928.72;;;16.79;80.90
62849;BME280;48941;49.516;8.286;2022-09-09T03:38:55;99929.59;;;16.80;81.28
62849;BME280;48941;49.516;8.286;2022-09-09T03:41:23;99927.22;;;16.77;81.50
62849;BME280;48941;49.516;8.286;2022-09-09T03:43:51;99923.22;;;16.72;81.71
62849;BME280;48941;49.516;8.286;2022-09-09T03:46:19;99928.59;;;16.72;81.91
62849;BME280;48941;49.516;8.286;2022-09-09T03:48:46;99924.09;;;16.65;82.57
62849;BME280;48941;49.516;8.286;2022-09-09T03:51:16;99928.78;;;16.63;83.06
62849;BME280;48941;49.516;8.286;2022-09-09T03:53:44;99929.63;;;16.63;82.87
62849;BME280;48941;49.516;8.286;2022-09-09T03:56:12;99934.16;;;16.63;82.92
62849;BME280;48941;49.516;8.286;2022-09-09T03:58:41;99928.78;;;16.63;83.52
62849;BME280;48941;49.516;8.286;2022-09-09T04:01:10;99928.50;;;16.58;83.64
62849;BME280;48941;49.516;8.286;2022-09-09T04:03:40;99925.81;;;16.49;84.24
62849;BME280;48941;49.516;8.286;2022-09-09T04:06:09;99911.03;;;16.45;84.30
62849;BME280;48941;49.516;8.286;2022-09-09T04:08:40;99915.94;;;16.42;84.71
62849;BME280;48941;49.516;8.286;2022-09-09T04:11:08;99918.13;;;16.38;85.24
62849;BME280;48941;49.516;8.286;2022-09-09T04:13:37;99919.13;;;16.37;85.51
62849;BME280;48941;49.516;8.286;2022-09-09T04:16:06;99919.47;;;16.34;85.58
62849;BME280;48941;49.516;8.286;2022-09-09T04:18:34;99918.97;;;16.39;85.02
62849;BME280;48941;49.516;8.286;2022-09-09T04:21:02;99922.69;;;16.38;84.92
62849;BME280;48941;49.516;8.286;2022-09-09T04:23:32;99923.66;;;16.37;84.89
62849;BME280;48941;49.516;8.286;2022-09-09T04:26:03;99922.00;;;16.36;85.25
62849;BME280;48941;49.516;8.286;2022-09-09T04:28:33;99928.22;;;16.36;85.02
62849;BME280;48941;49.516;8.286;2022-09-09T04:31:06;99928.22;;;16.36;85.03
62849;BME280;48941;49.516;8.286;2022-09-09T04:33:35;99937.63;;;16.32;85.38
62849;BME280;48941;49.516;8.286;2022-09-09T04:36:06;99936.97;;;16.30;85.29
62849;BME280;48941;49.516;8.286;2022-09-09T04:38:34;99937.47;;;16.33;85.35
62849;BME280;48941;49.516;8.286;2022-09-09T04:41:04;99936.78;;;16.31;85.50
62849;BME280;48941;49.516;8.286;2022-09-09T04:43:32;99936.59;;;16.33;85.23
62849;BME280;48941;49.516;8.286;2022-09-09T04:46:00;99939.97;;;16.35;84.74
62849;BME280;48941;49.516;8.286;2022-09-09T04:48:28;99948.34;;;16.40;84.61
62849;BME280;48941;49.516;8.286;2022-09-09T04:50:59;99949.03;;;16.42;84.19
62849;BME280;48941;49.516;8.286;2022-09-09T04:53:27;99953.72;;;16.40;84.22
62849;BME280;48941;49.516;8.286;2022-09-09T04:56:01;99953.22;;;16.45;83.75
62849;BME280;48941;49.516;8.286;2022-09-09T04:58:30;99955.38;;;16.49;83.65
62849;BME280;48941;49.516;8.286;2022-09-09T05:01:06;99952.88;;;16.48;83.84
62849;BME280;48941;49.516;8.286;2022-09-09T05:03:35;99960.59;;;16.51;83.00
62849;BME280;48941;49.516;8.286;2022-09-09T05:06:08;99956.06;;;16.43;83.20
62849;BME280;48941;49.516;8.286;2022-09-09T05:08:37;99963.28;;;16.43;83.79
62849;BME280;48941;49.516;8.286;2022-09-09T05:11:13;99956.41;;;16.40;83.61
62849;BME280;48941;49.516;8.286;2022-09-09T05:13:43;99968.16;;;16.39;83.77
62849;BME280;48941;49.516;8.286;2022-09-09T05:16:11;99962.13;;;16.37;83.68
62849;BME280;48941;49.516;8.286;2022-09-09T05:18:40;99958.59;;;16.37;83.84
62849;BME280;48941;49.516;8.286;2022-09-09T05:21:09;99961.66;;;16.33;84.00
62849;BME280;48941;49.516;8.286;2022-09-09T05:23:37;99963.31;;;16.35;83.93
62849;BME280;48941;49.516;8.286;2022-09-09T05:26:06;99967.84;;;16.34;84.09
62849;BME280;48941;49.516;8.286;2022-09-09T05:28:35;99968.03;;;16.32;84.11
62849;BME280;48941;49.516;8.286;2022-09-09T05:31:05;99973.22;;;16.34;83.97
62849;BME280;48941;49.516;8.286;2022-09-09T05:33:35;99975.75;;;16.36;84.01
62849;BME280;48941;49.516;8.286;2022-09-09T05:36:05;99977.59;;;16.35;84.12
62849;BME280;48941;49.516;8.286;2022-09-09T05:38:34;99976.59;;;16.36;83.84
62849;BME280;48941;49.516;8.286;2022-09-09T05:41:03;99979.78;;;16.40;83.70
62849;BME280;48941;49.516;8.286;2022-09-09T05:43:31;99984.78;;;16.43;83.68
62849;BME280;48941;49.516;8.286;2022-09-09T05:46:00;99985.16;;;16.40;83.73
62849;BME280;48941;49.516;8.286;2022-09-09T05:48:31;99992.19;;;16.41;83.54
62849;BME280;48941;49.516;8.286;2022-09-09T05:51:00;99992.03;;;16.42;83.59
62849;BME280;48941;49.516;8.286;2022-09-09T05:53:28;99992.84;;;16.43;83.31
62849;BME280;48941;49.516;8.286;2022-09-09T05:56:00;100000.09;;;16.42;83.63
62849;BME280;48941;49.516;8.286;2022-09-09T05:58:30;100005.63;;;16.41;83.58
62849;BME280;48941;49.516;8.286;2022-09-09T06:01:03;99999.25;;;16.42;83.68
62849;BME280;48941;49.516;8.286;2022-09-09T06:03:33;100006.13;;;16.44;83.77
62849;BME280;48941;49.516;8.286;2022-09-09T06:06:03;100006.81;;;16.46;83.55
62849;BME280;48941;49.516;8.286;2022-09-09T06:08:32;100010.47;;;16.45;83.61
62849;BME280;48941;49.516;8.286;2022-09-09T06:11:01;100004.13;;;16.46;84.07
62849;BME280;48941;49.516;8.286;2022-09-09T06:13:31;100010.50;;;16.53;83.93
62849;BME280;48941;49.516;8.286;2022-09-09T06:15:59;100010.81;;;16.59;83.46
62849;BME280;48941;49.516;8.286;2022-09-09T06:18:27;100002.88;;;16.65;83.11
62849;BME280;48941;49.516;8.286;2022-09-09T06:20:58;100012.47;;;16.76;83.21
62849;BME280;48941;49.516;8.286;2022-09-09T06:23:27;100013.97;;;16.87;82.59
62849;BME280;48941;49.516;8.286;2022-09-09T06:26:04;100010.56;;;16.93;82.33
62849;BME280;48941;49.516;8.286;2022-09-09T06:28:33;100014.09;;;17.02;81.99
62849;BME280;48941;49.516;8.286;2022-09-09T06:31:02;100010.53;;;17.09;81.54
62849;BME280;48941;49.516;8.286;2022-09-09T06:33:31;100017.91;;;17.16;80.97
62849;BME280;48941;49.516;8.286;2022-09-09T06:36:03;100018.69;;;17.24;80.88
62849;BME280;48941;49.516;8.286;2022-09-09T06:38:31;100019.16;;;17.36;80.38
62849;BME280;48941;49.516;8.286;2022-09-09T06:40:59;100016.06;;;17.47;79.86
62849;BME280;48941;49.516;8.286;2022-09-09T06:43:28;100008.22;;;17.61;78.99
62849;BME280;48941;49.516;8.286;2022-09-09T06:45:57;100009.69;;;17.71;78.35
62849;BME280;48941;49.516;8.286;2022-09-09T06:48:26;100005.91;;;17.81;77.95
62849;BME280;48941;49.516;8.286;2022-09-09T06:51:02;100001.03;;;17.84;77.70
62849;BME280;48941;49.516;8.286;2022-09-09T06:53:31;100004.50;;;17.93;77.07
62849;BME280;48941;49.516;8.286;2022-09-09T06:56:00;100000.41;;;17.97;77.11
62849;BME280;48941;49.516;8.286;2022-09-09T06:58:28;99993.84;;;18.00;76.71
62849;BME280;48941;49.516;8.286;2022-09-09T07:01:02;100001.88;;;18.08;76.26
62849;BME280;48941;49.516;8.286;2022-09-09T07:03:30;100009.28;;;18.06;76.55
62849;BME280;48941;49.516;8.286;2022-09-09T07:05:58;100005.50;;;18.15;76.09
62849;BME280;48941;49.516;8.286;2022-09-09T07:08:28;100006.69;;;18.13;75.99
62849;BME280;48941;49.516;8.286;2022-09-09T07:11:02;100008.19;;;18.15;76.31
62849;BME280;48941;49.516;8.286;2022-09-09T07:13:37;100008.19;;;18.15;76.00
62849;BME280;48941;49.516;8.286;2022-09-09T07:16:05;100013.41;;;18.17;75.81
62849;BME280;48941;49.516;8.286;2022-09-09T07:18:34;100005.97;;;18.19;75.64
62849;BME280;48941;49.516;8.286;2022-09-09T07:21:03;99998.53;;;18.21;75.01
62849;BME280;48941;49.516;8.286;2022-09-09T07:23:32;100014.28;;;18.32;75.30
62849;BME280;48941;49.516;8.286;2022-09-09T07:26:02;100015.16;;;18.47;74.43
62849;BME280;48941;49.516;8.286;2022-09-09T07:28:34;100016.19;;;18.61;73.81
62849;BME280;48941;49.516;8.286;2022-09-09T07:31:03;100010.91;;;18.68;72.96
62849;BME280;48941;49.516;8.286;2022-09-09T07:33:32;100018.00;;;18.84;72.08
62849;BME280;48941;49.516;8.286;2022-09-09T07:36:07;100015.50;;;18.97;71.44
62849;BME280;48941;49.516;8.286;2022-09-09T07:38:40;100016.16;;;18.99;71.39
62849;BME280;48941;49.516;8.286;2022-09-09T07:41:11;100021.34;;;19.01;71.24
62849;BME280;48941;49.516;8.286;2022-09-09T07:43:39;100018.47;;;19.02;71.03
62849;BME280;48941;49.516;8.286;2022-09-09T07:46:08;100014.00;;;19.09;70.48
62849;BME280;48941;49.516;8.286;2022-09-09T07:48:36;100009.59;;;19.08;70.88
62849;BME280;48941;49.516;8.286;2022-09-09T07:51:06;100016.97;;;19.15;70.62
62849;BME280;48941;49.516;8.286;2022-09-09T07:53:34;100024.31;;;19.06;70.61
62849;BME280;48941;49.516;8.286;2022-09-09T07:56:06;100016.81;;;19.01;71.24
62849;BME280;48941;49.516;8.286;2022-09-09T07:58:35;100031.22;;;18.94;71.51
62849;BME280;48941;49.516;8.286;2022-09-09T08:01:09;100041.06;;;18.86;72.03
62849;BME280;48941;49.516;8.286;2022-09-09T08:03:38;100036.72;;;18.85;72.61
62849;BME280;48941;49.516;8.286;2022-09-09T08:06:08;100039.78;;;18.82;73.23
62849;BME280;48941;49.516;8.286;2022-09-09T08:08:36;100036.06;;;18.83;73.32
62849;BME280;48941;49.516;8.286;2022-09-09T08:11:08;100033.88;;;18.79;73.93
62849;BME280;48941;49.516;8.286;2022-09-09T08:13:38;100031.38;;;18.77;74.48
62849;BME280;48941;49.516;8.286;2022-09-09T08:16:08;100042.13;;;18.85;74.70
62849;BME280;48941;49.516;8.286;2022-09-09T08:18:38;100050.13;;;18.94;73.90
62849;BME280;48941;49.516;8.286;2022-09-09T08:21:08;100044.91;;;18.92;74.14
62849;BME280;48941;49.516;8.286;2022-09-09T08:23:38;100042.28;;;18.99;73.69
62849;BME280;48941;49.516;8.286;2022-09-09T08:26:11;100044.31;;;18.97;74.26
62849;BME280;48941;49.516;8.286;2022-09-09T08:28:39;100046.56;;;18.93;73.97
62849;BME280;48941;49.516;8.286;2022-09-09T08:31:08;100049.00;;;18.88;74.66
62849;BME280;48941;49.516;8.286;2022-09-09T08:33:38;100050.22;;;18.85;74.40
62849;BME280;48941;49.516;8.286;2022-09-09T08:36:06;100057.06;;;19.03;74.19
62849;BME280;48941;49.516;8.286;2022-09-09T08:38:36;100054.66;;;19.23;74.08
62849;BME280;48941;49.516;8.286;2022-09-09T08:41:30;100054.50;;;19.61;71.86
62849;BME280;48941;49.516;8.286;2022-09-09T08:44:07;100045.69;;;19.88;70.92
62849;BME280;48941;49.516;8.286;2022-09-09T08:46:44;100051.22;;;20.23;69.78
62849;BME280;48941;49.516;8.286;2022-09-09T08:49:39;100050.47;;;20.58;67.71
62849;BME280;48941;49.516;8.286;2022-09-09T08:52:16;100043.34;;;20.78;65.98
62849;BME280;48941;49.516;8.286;2022-09-09T08:54:46;100038.50;;;21.02;65.66
62849;BME280;48941;49.516;8.286;2022-09-09T08:57:21;100042.56;;;21.19;65.39
62849;BME280;48941;49.516;8.286;2022-09-09T08:59:53;100043.81;;;21.23;66.93
62849;BME280;48941;49.516;8.286;2022-09-09T09:02:27;100042.38;;;21.21;66.08
62849;BME280;48941;49.516;8.286;2022-09-09T09:05:08;100033.75;;;21.11;65.39
62849;BME280;48941;49.516;8.286;2022-09-09T09:07:50;100046.13;;;20.85;66.27
62849;BME280;48941;49.516;8.286;2022-09-09T09:10:34;100048.13;;;20.76;67.08
62849;BME280;48941;49.516;8.286;2022-09-09T09:13:13;100041.84;;;20.69;66.08
62849;BME280;48941;49.516;8.286;2022-09-09T09:15:44;100047.25;;;20.69;66.00
62849;BME280;48941;49.516;8.286;2022-09-09T09:18:14;100042.03;;;20.67;66.32
62849;BME280;48941;49.516;8.286;2022-09-09T09:20:50;100048.56;;;20.80;66.29
62849;BME280;48941;49.516;8.286;2022-09-09T09:23:24;100053.63;;;20.89;66.55
62849;BME280;48941;49.516;8.286;2022-09-09T09:25:56;100045.75;;;20.95;64.83
62849;BME280;48941;49.516;8.286;2022-09-09T09:28:29;100046.00;;;21.00;62.11
62849;BME280;48941;49.516;8.286;2022-09-09T09:31:04;100040.97;;;20.97;62.73
62849;BME280;48941;49.516;8.286;2022-09-09T09:33:40;100032.44;;;21.00;64.15
62849;BME280;48941;49.516;8.286;2022-09-09T09:36:13;100028.50;;;21.02;65.52
62849;BME280;48941;49.516;8.286;2022-09-09T09:38:52;100025.44;;;21.19;64.33
62849;BME280;48941;49.516;8.286;2022-09-09T09:41:42;100025.94;;;21.29;63.49
62849;BME280;48941;49.516;8.286;2022-09-09T09:44:23;100021.78;;;21.33;63.49
62849;BME280;48941;49.516;8.286;2022-09-09T09:46:52;100023.88;;;21.31;62.92
62849;BME280;48941;49.516;8.286;2022-09-09T09:49:20;100023.44;;;21.27;62.63
62849;BME280;48941;49.516;8.286;2022-09-09T09:51:48;100024.88;;;21.23;62.55
62849;BME280;48941;49.516;8.286;2022-09-09T09:54:22;100029.69;;;21.35;61.34
62849;BME280;48941;49.516;8.286;2022-09-09T09:56:52;100035.53;;;21.32;61.03
62849;BME280;48941;49.516;8.286;2022-09-09T09:59:32;100038.34;;;21.52;58.31
62849;BME280;48941;49.516;8.286;2022-09-09T10:02:13;100036.25;;;21.54;56.44
62849;BME280;48941;49.516;8.286;2022-09-09T10:04:41;100034.63;;;21.59;55.29
62849;BME280;48941;49.516;8.286;2022-09-09T10:07:11;100037.72;;;21.56;56.45
62849;BME280;48941;49.516;8.286;2022-09-09T10:09:39;100031.84;;;21.46;58.15
62849;BME280;48941;49.516;8.286;2022-09-09T10:12:18;100018.75;;;21.50;56.75
62849;BME280;48941;49.516;8.286;2022-09-09T10:14:53;100035.22;;;21.55;60.10
62849;BME280;48941;49.516;8.286;2022-09-09T10:17:32;100029.59;;;21.56;62.88
62849;BME280;48941;49.516;8.286;2022-09-09T10:20:24;100028.16;;;21.60;62.65
62849;BME280;48941;49.516;8.286;2022-09-09T10:23:04;100024.22;;;21.70;63.29
62849;BME280;48941;49.516;8.286;2022-09-09T10:25:43;100018.22;;;21.81;59.22
62849;BME280;48941;49.516;8.286;2022-09-09T10:31:25;100008.47;;;22.33;57.02
62849;BME280;48941;49.516;8.286;2022-09-09T10:34:05;99999.06;;;22.56;55.35
62849;BME280;48941;49.516;8.286;2022-09-09T10:36:39;100006.69;;;22.92;53.33
62849;BME280;48941;49.516;8.286;2022-09-09T10:39:21;99993.31;;;23.11;53.27
62849;BME280;48941;49.516;8.286;2022-09-09T10:41:57;99989.28;;;23.26;54.36
62849;BME280;48941;49.516;8.286;2022-09-09T10:47:37;99995.72;;;23.32;54.18
62849;BME280;48941;49.516;8.286;2022-09-09T10:50:20;99994.22;;;23.43;54.19
62849;BME280;48941;49.516;8.286;2022-09-09T10:53:20;99997.19;;;23.35;54.12
62849;BME280;48941;49.516;8.286;2022-09-09T10:55:53;99985.88;;;23.38;52.62
62849;BME280;48941;49.516;8.286;2022-09-09T10:58:27;99985.25;;;23.36;52.87
62849;BME280;48941;49.516;8.286;2022-09-09T11:00:59;99991.34;;;23.31;52.99
62849;BME280;48941;49.516;8.286;2022-09-09T11:03:31;99980.72;;;23.16;53.96
62849;BME280;48941;49.516;8.286;2022-09-09T11:06:04;99979.53;;;23.05;54.29
62849;BME280;48941;49.516;8.286;2022-09-09T11:08:36;99995.84;;;22.99;54.80
62849;BME280;48941;49.516;8.286;2022-09-09T11:11:09;99988.13;;;22.89;55.59
62849;BME280;48941;49.516;8.286;2022-09-09T11:13:42;99988.19;;;22.69;56.74
62849;BME280;48941;49.516;8.286;2022-09-09T11:16:20;99981.75;;;22.57;56.62
62849;BME280;48941;49.516;8.286;2022-09-09T11:18:55;99985.06;;;22.65;53.08
62849;BME280;48941;49.516;8.286;2022-09-09T11:21:29;99991.97;;;22.55;52.82
62849;BME280;48941;49.516;8.286;2022-09-09T11:24:00;99990.31;;;22.27;53.52
62849;BME280;48941;49.516;8.286;2022-09-09T11:26:36;99989.88;;;22.17;53.53
62849;BME280;48941;49.516;8.286;2022-09-09T11:29:23;99990.09;;;22.15;54.09
62849;BME280;48941;49.516;8.286;2022-09-09T11:32:08;99992.56;;;21.90;58.21
62849;BME280;48941;49.516;8.286;2022-09-09T11:34:51;99998.56;;;21.59;60.87
62849;BME280;48941;49.516;8.286;2022-09-09T11:38:05;99992.81;;;21.27;62.11
62849;BME280;48941;49.516;8.286;2022-09-09T11:40:36;100009.09;;;20.92;64.60
62849;BME280;48941;49.516;8.286;2022-09-09T11:43:09;100021.63;;;20.65;67.29
62849;BME280;48941;49.516;8.286;2022-09-09T11:45:40;100017.34;;;20.27;71.77
62849;BME280;48941;49.516;8.286;2022-09-09T11:48:23;100022.78;;;19.84;75.82
62849;BME280;48941;49.516;8.286;2022-09-09T11:51:03;100013.72;;;19.56;77.32
62849;BME280;48941;49.516;8.286;2022-09-09T11:53:31;100012.91;;;19.40;78.98
62849;BME280;48941;49.516;8.286;2022-09-09T11:56:10;100022.53;;;19.28;80.50
62849;BME280;48941;49.516;8.286;2022-09-09T11:58:44;100035.84;;;19.15;80.36
62849;BME280;48941;49.516;8.286;2022-09-09T12:01:29;100042.00;;;19.08;80.83
62849;BME280;48941;49.516;8.286;2022-09-09T12:04:10;100041.28;;;19.00;81.30
62849;BME280;48941;49.516;8.286;2022-09-09T12:06:50;100026.66;;;18.94;81.96
62849;BME280;48941;49.516;8.286;2022-09-09T12:09:25;100020.31;;;18.87;79.87
62849;BME280;48941;49.516;8.286;2022-09-09T12:12:06;100019.22;;;18.96;80.71
62849;BME280;48941;49.516;8.286;2022-09-09T12:14:36;100018.28;;;19.04;82.95
62849;BME280;48941;49.516;8.286;2022-09-09T12:17:19;100020.56;;;19.37;81.29
62849;BME280;48941;49.516;8.286;2022-09-09T12:19:48;100031.84;;;19.77;80.12
62849;BME280;48941;49.516;8.286;2022-09-09T12:22:34;100026.69;;;20.25;75.93
62849;BME280;48941;49.516;8.286;2022-09-09T12:25:12;100020.03;;;20.77;75.75
62849;BME280;48941;49.516;8.286;2022-09-09T12:27:59;100028.66;;;21.36;71.96
62849;BME280;48941;49.516;8.286;2022-09-09T12:30:33;100018.22;;;21.87;71.06
62849;BME280;48941;49.516;8.286;2022-09-09T12:33:08;100011.41;;;22.25;62.66
62849;BME280;48941;49.516;8.286;2022-09-09T12:35:38;99998.41;;;22.60;62.69
62849;BME280;48941;49.516;8.286;2022-09-09T12:38:13;100005.03;;;22.84;59.26
62849;BME280;48941;49.516;8.286;2022-09-09T12:40:54;100004.84;;;22.93;58.57
62849;BME280;48941;49.516;8.286;2022-09-09T12:43:24;100007.31;;;23.01;55.77
62849;BME280;48941;49.516;8.286;2022-09-09T12:45:55;99995.00;;;23.05;55.44
62849;BME280;48941;49.516;8.286;2022-09-09T12:48:30;99990.59;;;23.04;54.32
62849;BME280;48941;49.516;8.286;2022-09-09T12:51:00;99992.09;;;22.93;52.86
62849;BME280;48941;49.516;8.286;2022-09-09T12:53:32;99985.03;;;22.79;54.56
62849;BME280;48941;49.516;8.286;2022-09-09T12:56:04;100000.69;;;22.77;55.14
62849;BME280;48941;49.516;8.286;2022-09-09T12:58:35;99999.84;;;22.76;55.04
62849;BME280;48941;49.516;8.286;2022-09-09T13:01:04;99991.34;;;22.53;57.28
62849;BME280;48941;49.516;8.286;2022-09-09T13:03:41;100006.56;;;22.54;56.73
62849;BME280;48941;49.516;8.286;2022-09-09T13:06:16;99998.25;;;22.35;53.58
62849;BME280;48941;49.516;8.286;2022-09-09T13:08:47;99983.22;;;22.39;53.00
62849;BME280;48941;49.516;8.286;2022-09-09T13:11:18;99975.88;;;22.46;53.52
62849;BME280;48941;49.516;8.286;2022-09-09T13:13:52;99978.59;;;22.60;53.15
62849;BME280;48941;49.516;8.286;2022-09-09T13:16:25;99982.91;;;22.87;53.15
62849;BME280;48941;49.516;8.286;2022-09-09T13:19:00;99980.16;;;22.94;51.53
62849;BME280;48941;49.516;8.286;2022-09-09T13:21:33;99969.44;;;23.19;51.57
62849;BME280;48941;49.516;8.286;2022-09-09T13:24:04;99965.19;;;23.37;51.84
62849;BME280;48941;49.516;8.286;2022-09-09T13:26:34;99971.66;;;23.36;50.47
62849;BME280;48941;49.516;8.286;2022-09-09T13:29:16;99968.53;;;23.32;49.96
62849;BME280;48941;49.516;8.286;2022-09-09T13:31:47;99960.75;;;23.42;51.38
62849;BME280;48941;49.516;8.286;2022-09-09T13:34:27;99965.84;;;23.64;51.84